Time;durP1;ratioP1;P1;durP2;ratioP2;P2;SDS_P1;SDS_P2;PMS_P1;PMS_P2;Temp;Humidity;BMP_temperature;BMP_pressure;BME280_temperature;BME280_humidity;BME280_pressure;Samples;Min_cycle;Max_cycle;Signal;HPM_P1;HPM_P2
2023/02/13 00:01:41;;;;;;;29.70;12.93;;;;;;;13.03;67.74;103383.53;5111405;27;98481;-70
2023/02/13 00:04:09;;;;;;;28.60;14.20;;;;;;;13.29;66.91;103391.41;5105277;27;99615;-71
2023/02/13 00:06:35;;;;;;;27.08;12.68;;;;;;;13.20;66.61;103392.34;5116919;27;97189;-69
2023/02/13 00:09:02;;;;;;;24.30;11.95;;;;;;;12.87;67.05;103390.66;5121248;27;98367;-70
2023/02/13 00:11:29;;;;;;;24.55;10.68;;;;;;;12.98;66.64;103388.88;5114539;27;99396;-70
2023/02/13 00:13:55;;;;;;;22.88;10.80;;;;;;;12.84;67.33;103395.09;5115298;27;98873;-71
2023/02/13 00:16:21;;;;;;;27.33;10.77;;;;;;;13.02;66.57;103393.28;5103024;27;98111;-70
2023/02/13 00:18:48;;;;;;;20.67;10.30;;;;;;;13.05;66.29;103390.63;5111743;27;97267;-70
2023/02/13 00:21:15;;;;;;;20.55;10.68;;;;;;;13.06;66.44;103392.34;5110540;27;99246;-69
2023/02/13 00:23:42;;;;;;;20.35;10.07;;;;;;;13.15;65.58;103389.72;5112869;27;97547;-70
2023/02/13 00:26:10;;;;;;;18.77;8.82;;;;;;;12.73;66.42;103387.19;5105988;27;97369;-70
2023/02/13 00:28:36;;;;;;;20.20;9.68;;;;;;;12.88;65.76;103392.44;5105308;27;97393;-70
2023/02/13 00:31:04;;;;;;;17.08;8.88;;;;;;;12.89;65.91;103393.31;5105903;27;99270;-70
2023/02/13 00:33:31;;;;;;;16.65;8.80;;;;;;;12.76;65.45;103393.34;5098334;27;98965;-70
2023/02/13 00:36:03;;;;;;;15.48;7.57;;;;;;;12.62;65.71;103397.81;5106234;27;98567;-71
2023/02/13 00:38:31;;;;;;;17.20;8.30;;;;;;;12.36;66.56;103394.31;5112041;27;99155;-69
2023/02/13 00:40:58;;;;;;;13.82;6.93;;;;;;;12.63;65.76;103396.03;5105335;27;99488;-69
2023/02/13 00:43:24;;;;;;;12.90;7.03;;;;;;;12.73;65.02;103396.00;5103295;27;98905;-70
2023/02/13 00:45:51;;;;;;;11.40;6.68;;;;;;;12.88;64.24;103384.47;5107808;27;97614;-70
2023/02/13 00:48:17;;;;;;;10.48;5.10;;;;;;;12.66;63.86;103390.75;5105099;27;96851;-70
2023/02/13 00:50:45;;;;;;;7.63;4.30;;;;;;;12.67;63.64;103384.53;5108626;27;99379;-70
2023/02/13 00:53:11;;;;;;;8.30;4.38;;;;;;;12.52;63.54;103384.56;5106894;27;99101;-71
2023/02/13 00:55:39;;;;;;;9.38;3.92;;;;;;;12.37;63.30;103383.72;5105950;27;97627;-71
2023/02/13 00:58:05;;;;;;;11.43;4.07;;;;;;;12.53;63.41;103375.75;5104545;27;97679;-70
2023/02/13 01:00:32;;;;;;;8.73;4.18;;;;;;;12.85;62.61;103375.66;5097228;27;98203;-70
2023/02/13 01:02:58;;;;;;;7.03;3.60;;;;;;;12.72;62.42;103382.75;5100830;27;99163;-71
2023/02/13 01:05:26;;;;;;;8.80;3.47;;;;;;;12.73;62.10;103381.88;5110702;27;96789;-71
2023/02/13 01:07:53;;;;;;;8.75;3.53;;;;;;;12.75;61.14;103388.94;5107122;27;97429;-71
2023/02/13 01:10:19;;;;;;;7.40;3.10;;;;;;;12.67;61.56;103389.81;5106464;27;98920;-71
2023/02/13 01:12:47;;;;;;;4.20;2.53;;;;;;;12.72;61.48;103388.97;5110846;27;98829;-71
2023/02/13 01:15:14;;;;;;;4.40;2.50;;;;;;;12.26;62.67;103388.16;5102508;27;97692;-71
2023/02/13 01:17:40;;;;;;;6.53;2.90;;;;;;;12.41;61.83;103384.56;5107576;27;97170;-71
2023/02/13 01:20:07;;;;;;;6.05;2.70;;;;;;;12.63;61.42;103388.97;5110478;27;98967;-71
2023/02/13 01:22:34;;;;;;;5.13;2.60;;;;;;;12.92;60.84;103388.00;5107340;27;97721;-71
2023/02/13 01:25:00;;;;;;;6.38;2.50;;;;;;;12.56;61.75;103392.50;5106132;27;97381;-71
2023/02/13 01:27:27;;;;;;;4.30;2.42;;;;;;;12.62;61.18;103383.66;5106214;27;97432;-72
2023/02/13 01:29:56;;;;;;;5.18;2.08;;;;;;;12.73;60.79;103392.50;5111765;27;101452;-72
2023/02/13 01:32:22;;;;;;;8.55;2.53;;;;;;;12.71;60.91;103389.84;5107198;27;100498;-72
2023/02/13 01:34:48;;;;;;;7.70;3.15;;;;;;;12.45;61.86;103390.78;5096757;27;97814;-70
2023/02/13 01:37:15;;;;;;;4.90;2.63;;;;;;;12.86;61.03;103382.72;5100839;27;97427;-71
2023/02/13 01:39:41;;;;;;;3.83;2.40;;;;;;;12.82;61.07;103376.53;5093843;27;99051;-70
2023/02/13 01:42:15;;;;;;;7.25;2.47;;;;;;;12.89;60.34;103378.28;5112188;27;98050;-70
2023/02/13 01:44:48;;;;;;;3.83;2.20;;;;;;;12.76;60.95;103376.56;5108605;27;96840;-71
2023/02/13 01:47:22;;;;;;;3.83;2.38;;;;;;;12.76;60.97;103381.84;5105390;27;98085;-71
2023/02/13 01:49:51;;;;;;;6.63;2.92;;;;;;;12.63;61.03;103375.69;5099678;27;99599;-70
2023/02/13 01:52:17;;;;;;;3.75;2.38;;;;;;;12.81;60.84;103380.06;5107100;27;99482;-71
2023/02/13 01:54:45;;;;;;;6.10;2.90;;;;;;;12.56;61.58;103384.56;5107143;27;98935;-69
2023/02/13 01:57:18;;;;;;;4.03;2.88;;;;;;;12.45;62.28;103380.16;5113220;27;96860;-69
2023/02/13 01:59:48;;;;;;;4.15;2.72;;;;;;;12.56;62.24;103383.66;5108919;27;99100;-69
2023/02/13 02:02:18;;;;;;;6.50;3.15;;;;;;;12.49;62.51;103382.81;5116485;27;99171;-70
2023/02/13 02:04:47;;;;;;;4.53;2.97;;;;;;;12.51;62.17;103377.50;5112879;27;97123;-70
2023/02/13 02:07:19;;;;;;;3.72;2.88;;;;;;;12.18;63.19;103379.31;5118466;27;97027;-69
2023/02/13 02:09:46;;;;;;;4.60;3.20;;;;;;;12.46;62.95;103381.94;5108833;27;98947;-71
2023/02/13 02:12:23;;;;;;;5.25;3.40;;;;;;;12.43;63.19;103373.97;5120599;27;99224;-71
2023/02/13 02:14:52;;;;;;;5.88;3.50;;;;;;;12.53;62.72;103379.28;5113155;27;97007;-69
2023/02/13 02:17:22;;;;;;;6.03;3.28;;;;;;;12.37;63.16;103380.16;5111010;27;98775;-70
2023/02/13 02:19:57;;;;;;;4.32;3.03;;;;;;;12.62;62.98;103379.25;5113169;27;97815;-70
2023/02/13 02:22:58;;;;;;;6.85;3.15;;;;;;;12.68;62.67;103380.97;5116494;27;98844;-70
2023/02/13 02:25:48;;;;;;;6.95;3.30;;;;;;;12.49;63.25;103389.88;5107752;27;97350;-69
2023/02/13 02:28:32;;;;;;;7.32;3.63;;;;;;;12.47;63.31;103389.88;5108422;27;98487;-69
2023/02/13 02:31:27;;;;;;;6.40;3.40;;;;;;;12.71;62.69;103386.31;5106578;27;98490;-70
2023/02/13 02:34:09;;;;;;;8.27;4.07;;;;;;;12.55;62.99;103387.19;5110064;27;98890;-71
2023/02/13 02:36:52;;;;;;;6.72;3.75;;;;;;;12.34;63.71;103394.31;5110924;27;96755;-70
2023/02/13 02:39:27;;;;;;;6.03;4.00;;;;;;;12.42;63.54;103389.00;5103883;27;97352;-70
2023/02/13 02:42:08;;;;;;;6.68;4.43;;;;;;;12.55;63.34;103392.50;5105621;27;99141;-71
2023/02/13 02:44:43;;;;;;;7.05;4.05;;;;;;;12.65;62.75;103396.94;5107580;27;98842;-70
2023/02/13 02:50:16;;;;;;;8.15;4.93;;;;;;;12.55;63.37;103397.81;5109429;27;96819;-70
2023/02/13 02:52:55;;;;;;;7.55;4.35;;;;;;;12.45;63.39;103396.06;5106048;27;98209;-70
2023/02/13 02:55:32;;;;;;;11.93;5.97;;;;;;;12.23;64.49;103385.47;5113063;27;97723;-70
2023/02/13 03:06:27;;;;;;;11.30;6.13;;;;;;;12.08;65.29;103390.78;5111326;27;97131;-70
2023/02/13 03:14:29;;;;;;;12.65;6.65;;;;;;;12.26;64.86;103396.09;5109831;27;97027;-70
2023/02/13 03:22:44;;;;;;;12.50;7.53;;;;;;;11.81;66.96;103399.63;5107473;27;98572;-69
2023/02/13 03:25:28;;;;;;;13.80;7.63;;;;;;;11.97;66.19;103401.38;5101260;27;100135;-71
2023/02/13 03:30:55;;;;;;;12.52;7.53;;;;;;;11.85;66.82;103396.09;5101136;27;97280;-70
2023/02/13 03:33:40;;;;;;;14.90;7.72;;;;;;;12.05;65.93;103396.09;5111387;27;96714;-71
2023/02/13 03:39:06;;;;;;;15.13;7.80;;;;;;;12.32;64.63;103398.75;5101523;27;98206;-70
2023/02/13 03:41:38;;;;;;;16.58;7.68;;;;;;;12.24;63.80;103392.56;5108879;27;97808;-70
2023/02/13 03:44:15;;;;;;;14.32;7.68;;;;;;;12.23;64.13;103395.19;5105395;27;97152;-71
2023/02/13 03:46:47;;;;;;;11.48;7.25;;;;;;;11.99;64.72;103385.50;5108276;27;102656;-71
2023/02/13 03:52:09;;;;;;;12.23;7.30;;;;;;;11.89;64.43;103383.72;5108062;27;96897;-70
2023/02/13 04:00:15;;;;;;;11.27;7.47;;;;;;;12.02;63.90;103390.78;5103808;27;97075;-69
2023/02/13 04:02:50;;;;;;;14.60;7.85;;;;;;;12.42;62.43;103381.03;5126262;27;96832;-69
2023/02/13 04:05:21;;;;;;;12.90;7.68;;;;;;;12.27;62.39;103378.44;5112125;27;97152;-68
2023/02/13 04:07:47;;;;;;;13.82;8.07;;;;;;;12.02;63.10;103372.22;5104886;27;99049;-69
2023/02/13 04:10:17;;;;;;;13.10;8.23;;;;;;;12.02;63.31;103374.00;5105341;27;100541;-69
2023/02/13 04:12:52;;;;;;;13.68;7.78;;;;;;;12.14;62.55;103374.88;5107526;27;96746;-69
2023/02/13 04:15:25;;;;;;;10.97;7.23;;;;;;;12.17;62.13;103374.88;5109174;27;96945;-69
2023/02/13 04:17:56;;;;;;;13.95;7.97;;;;;;;12.44;61.37;103373.09;5116984;27;96830;-70
2023/02/13 04:20:26;;;;;;;16.25;9.00;;;;;;;11.89;62.35;103373.09;5112993;27;98807;-70
2023/02/13 04:22:52;;;;;;;15.55;9.45;;;;;;;11.96;63.14;103367.81;5112616;27;96733;-71
2023/02/13 04:25:21;;;;;;;16.23;8.98;;;;;;;11.93;63.42;103377.56;5108298;27;97411;-69
2023/02/13 04:27:47;;;;;;;15.00;8.88;;;;;;;11.92;63.15;103368.72;5109226;27;99054;-70
2023/02/13 04:30:14;;;;;;;14.20;8.73;;;;;;;11.94;63.27;103371.38;5110249;27;98801;-70
2023/02/13 04:32:40;;;;;;;15.02;9.63;;;;;;;11.97;63.52;103376.66;5106949;27;97029;-72
2023/02/13 04:35:08;;;;;;;15.27;9.55;;;;;;;12.11;63.31;103374.88;5110448;27;97703;-70
2023/02/13 04:37:34;;;;;;;16.13;9.32;;;;;;;11.90;63.52;103372.22;5099272;27;98967;-70
2023/02/13 04:40:01;;;;;;;15.57;9.75;;;;;;;12.00;63.18;103363.41;5107824;27;97637;-71
2023/02/13 04:42:28;;;;;;;15.60;8.65;;;;;;;12.08;62.41;103360.78;5105069;27;96940;-70
2023/02/13 04:44:55;;;;;;;15.20;8.60;;;;;;;11.71;62.77;103360.72;5107131;27;97147;-70
2023/02/13 04:47:21;;;;;;;14.75;8.60;;;;;;;11.67;63.24;103360.72;5102864;27;99258;-69
2023/02/13 04:49:47;;;;;;;15.32;9.23;;;;;;;12.03;61.95;103357.22;5102100;27;99437;-70
2023/02/13 04:52:15;;;;;;;14.35;8.18;;;;;;;11.66;62.26;103353.66;5101965;27;99065;-70
2023/02/13 04:54:41;;;;;;;13.02;7.75;;;;;;;11.91;61.97;103355.47;5109750;27;97738;-71
2023/02/13 04:57:08;;;;;;;12.38;8.15;;;;;;;12.01;61.86;103351.94;5106001;27;98865;-71
2023/02/13 04:59:35;;;;;;;13.30;7.80;;;;;;;12.23;60.80;103358.09;5096094;27;98870;-70
2023/02/13 05:02:02;;;;;;;11.38;7.40;;;;;;;12.02;60.82;103364.28;5112639;27;99429;-70
2023/02/13 05:04:28;;;;;;;17.95;8.20;;;;;;;12.21;60.55;103363.38;5108930;27;97375;-69
2023/02/13 05:06:55;;;;;;;12.75;7.30;;;;;;;12.10;60.58;103361.63;5102595;27;99308;-70
2023/02/13 05:09:21;;;;;;;14.80;8.57;;;;;;;12.17;60.52;103360.75;5101452;27;99239;-70
2023/02/13 05:11:51;;;;;;;12.18;7.68;;;;;;;12.22;60.30;103356.31;5110918;27;97395;-71
2023/02/13 05:14:17;;;;;;;16.58;7.97;;;;;;;12.26;59.90;103368.72;5109182;27;96921;-70
2023/02/13 05:16:45;;;;;;;12.20;7.65;;;;;;;12.11;60.39;103372.25;5106981;27;98873;-71
2023/02/13 05:19:11;;;;;;;15.10;8.40;;;;;;;12.28;60.25;103374.88;5103226;27;98882;-71
2023/02/13 05:24:22;;;;;;;13.07;7.45;;;;;;;12.30;60.26;103363.38;5105301;27;97158;-71
2023/02/13 05:26:48;;;;;;;13.38;7.25;;;;;;;12.32;59.99;103366.94;5111330;27;97401;-70
2023/02/13 05:29:21;;;;;;;14.35;7.00;;;;;;;12.49;59.58;103360.69;5100787;27;100337;-70
2023/02/13 05:31:50;;;;;;;13.30;7.60;;;;;;;12.33;59.82;103365.16;5109790;27;97052;-69
2023/02/13 05:34:17;;;;;;;14.05;7.10;;;;;;;12.15;60.11;103367.81;5101777;27;97846;-70
2023/02/13 05:36:44;;;;;;;13.80;7.22;;;;;;;12.15;60.35;103368.69;5110869;27;99260;-69
2023/02/13 05:39:10;;;;;;;13.23;6.78;;;;;;;12.15;60.12;103370.47;5108387;27;99182;-70
2023/02/13 05:41:37;;;;;;;9.95;6.38;;;;;;;12.18;59.84;103370.47;5104143;27;96751;-70
2023/02/13 05:44:04;;;;;;;13.15;7.18;;;;;;;12.08;60.23;103377.53;5105099;27;98447;-71
2023/02/13 05:46:30;;;;;;;10.63;6.82;;;;;;;12.14;59.76;103369.56;5110031;27;99494;-71
2023/02/13 05:48:58;;;;;;;11.73;6.82;;;;;;;12.07;59.98;103367.84;5101255;27;102131;-70
2023/02/13 05:51:24;;;;;;;12.20;6.05;;;;;;;12.10;59.82;103373.13;5111419;27;96830;-70
2023/02/13 05:53:51;;;;;;;10.05;6.38;;;;;;;11.82;60.71;103379.28;5105558;27;98676;-70
2023/02/13 05:56:17;;;;;;;11.95;6.57;;;;;;;11.88;60.78;103381.97;5108309;27;98842;-71
2023/02/13 05:58:44;;;;;;;11.38;6.80;;;;;;;11.96;60.36;103377.53;5108619;27;99229;-72
2023/02/13 06:01:11;;;;;;;10.10;5.85;;;;;;;12.06;60.09;103384.63;5111949;27;97008;-70
2023/02/13 06:03:39;;;;;;;12.27;6.78;;;;;;;12.10;59.80;103391.69;5105891;27;97460;-70
2023/02/13 06:06:07;;;;;;;14.60;6.65;;;;;;;12.37;59.03;103386.38;5113854;27;99010;-69
2023/02/13 06:08:33;;;;;;;10.55;6.10;;;;;;;12.34;58.40;103386.34;5111877;27;98201;-70
2023/02/13 06:10:59;;;;;;;8.70;5.65;;;;;;;12.39;57.74;103394.31;5103255;27;97090;-70
2023/02/13 06:13:26;;;;;;;9.48;5.70;;;;;;;12.23;58.50;103396.09;5111389;27;96856;-70
2023/02/13 06:15:52;;;;;;;8.50;5.88;;;;;;;12.56;57.63;103394.28;5105894;27;99036;-70
2023/02/13 06:18:19;;;;;;;8.18;5.85;;;;;;;12.21;57.90;103397.84;5110291;27;99459;-71
2023/02/13 06:20:45;;;;;;;11.85;6.20;;;;;;;12.42;57.64;103399.59;5103964;27;97003;-70
2023/02/13 06:23:13;;;;;;;8.63;5.43;;;;;;;12.34;57.13;103391.66;5102631;27;96823;-72
2023/02/13 06:25:40;;;;;;;10.25;5.70;;;;;;;12.31;57.21;103390.78;5102357;27;99620;-72
2023/02/13 06:28:07;;;;;;;9.73;5.22;;;;;;;12.20;57.27;103390.81;5099758;27;97660;-71
2023/02/13 06:30:33;;;;;;;9.13;5.63;;;;;;;12.27;57.20;103391.69;5102848;27;99999;-72
2023/02/13 06:33:00;;;;;;;7.63;5.22;;;;;;;12.35;56.93;103398.72;5102307;27;97756;-71
2023/02/13 06:35:27;;;;;;;8.07;4.95;;;;;;;12.41;56.46;103394.28;5102198;27;99107;-71
2023/02/13 06:37:59;;;;;;;7.07;5.15;;;;;;;12.27;57.04;103397.00;5105001;27;98951;-72
2023/02/13 06:40:27;;;;;;;11.07;4.82;;;;;;;12.40;56.77;103396.09;5109025;27;98770;-71
2023/02/13 06:42:54;;;;;;;7.43;4.57;;;;;;;12.38;56.29;103408.47;5103284;27;97093;-71
2023/02/13 06:45:20;;;;;;;7.57;5.13;;;;;;;12.49;56.46;103411.09;5102595;27;101404;-71
2023/02/13 06:47:48;;;;;;;8.93;6.03;;;;;;;12.35;56.47;103406.69;5101805;27;98898;-70
2023/02/13 06:50:16;;;;;;;6.53;5.07;;;;;;;12.28;57.15;103414.63;5108909;27;97245;-70
2023/02/13 06:52:46;;;;;;;7.00;4.93;;;;;;;12.40;56.63;103414.66;5113152;27;96956;-70
2023/02/13 06:55:13;;;;;;;7.45;4.55;;;;;;;12.25;56.79;103417.31;5100298;27;98698;-70
2023/02/13 06:57:41;;;;;;;6.65;4.72;;;;;;;12.14;56.95;103421.72;5104711;27;99142;-70
2023/02/13 07:00:12;;;;;;;6.95;4.57;;;;;;;12.26;56.89;103416.44;5102859;27;97913;-70
2023/02/13 07:02:38;;;;;;;6.47;4.50;;;;;;;12.38;56.82;103427.03;5104560;27;97224;-71
2023/02/13 07:05:05;;;;;;;14.45;7.15;;;;;;;12.54;56.84;103422.56;5106598;27;98992;-71
2023/02/13 07:07:33;;;;;;;8.18;5.22;;;;;;;12.52;57.08;103427.91;5110067;27;100708;-70
2023/02/13 07:10:00;;;;;;;9.10;4.93;;;;;;;12.68;56.23;103420.78;5114370;27;97686;-72
2023/02/13 07:12:26;;;;;;;8.00;5.07;;;;;;;12.49;56.80;103417.28;5110626;27;96874;-71
2023/02/13 07:14:54;;;;;;;9.25;4.95;;;;;;;12.58;56.69;103424.34;5112786;27;99032;-71
2023/02/13 07:17:21;;;;;;;8.45;4.97;;;;;;;12.46;57.01;103419.06;5113730;27;98834;-71
2023/02/13 07:19:47;;;;;;;7.90;4.72;;;;;;;12.50;57.03;103428.78;5105729;27;99922;-71
2023/02/13 07:22:21;;;;;;;7.72;4.97;;;;;;;12.31;57.19;103426.13;5108599;27;96807;-71
2023/02/13 07:24:48;;;;;;;14.00;8.75;;;;;;;12.78;56.62;103427.84;5111432;27;99009;-71
2023/02/13 07:27:15;;;;;;;12.75;7.13;;;;;;;12.61;56.69;103427.88;5110102;27;99153;-71
2023/02/13 07:29:41;;;;;;;10.65;6.65;;;;;;;12.84;56.41;103427.84;5108546;27;97353;-72
2023/02/13 07:32:09;;;;;;;10.48;5.15;;;;;;;12.93;56.11;103434.91;5112097;27;96839;-70
2023/02/13 07:34:35;;;;;;;8.18;5.10;;;;;;;12.60;57.04;103433.19;5106532;27;98992;-70
2023/02/13 07:37:02;;;;;;;7.38;5.30;;;;;;;12.56;56.66;103434.06;5102865;27;98771;-70
2023/02/13 07:39:37;;;;;;;12.82;5.70;;;;;;;12.47;57.22;103432.28;5099922;27;97720;-73
2023/02/13 07:42:05;;;;;;;8.13;4.90;;;;;;;12.48;57.45;103431.41;5103693;27;98053;-69
2023/02/13 07:44:31;;;;;;;9.48;5.30;;;;;;;12.51;57.27;103439.38;5109617;27;99232;-71
2023/02/13 07:46:59;;;;;;;9.50;4.95;;;;;;;12.54;57.35;103441.13;5105246;27;99122;-72
2023/02/13 07:49:27;;;;;;;10.48;5.70;;;;;;;12.58;57.24;103442.91;5105393;27;96862;-72
2023/02/13 07:51:56;;;;;;;7.97;4.90;;;;;;;12.47;57.51;103431.44;5103772;27;96815;-71
2023/02/13 07:54:22;;;;;;;10.98;5.30;;;;;;;12.67;57.15;103440.22;5106233;27;100457;-72
2023/02/13 07:56:49;;;;;;;11.07;4.95;;;;;;;12.47;57.29;103442.06;5110123;27;98832;-71
2023/02/13 07:59:16;;;;;;;9.77;5.30;;;;;;;12.54;57.48;103442.00;5109571;27;97243;-72
2023/02/13 08:01:45;;;;;;;8.15;5.07;;;;;;;12.51;57.61;103439.38;5112223;27;97318;-72
2023/02/13 08:04:11;;;;;;;9.82;5.03;;;;;;;12.52;57.76;103445.56;5110978;27;99181;-73
2023/02/13 08:06:40;;;;;;;15.60;4.55;;;;;;;12.22;58.56;103446.44;5102562;27;98020;-71
2023/02/13 08:11:55;;;;;;;10.57;6.07;;;;;;;12.43;57.92;103448.22;5102626;27;98411;-72
2023/02/13 08:14:23;;;;;;;12.45;6.07;;;;;;;12.47;58.22;103457.97;5105255;27;99184;-71
2023/02/13 08:16:50;;;;;;;14.30;6.53;;;;;;;12.81;57.33;103443.75;5106018;27;99863;-73
2023/02/13 08:19:32;;;;;;;9.90;5.30;;;;;;;12.65;57.31;103450.88;5094187;27;98884;-71
2023/02/13 08:22:00;;;;;;;12.73;5.88;;;;;;;12.50;58.17;103453.53;5101560;27;98176;-70
2023/02/13 08:24:27;;;;;;;9.05;5.75;;;;;;;12.75;57.47;103443.75;5105298;27;98621;-71
2023/02/13 08:26:53;;;;;;;11.07;6.45;;;;;;;12.69;57.63;103446.44;5113731;27;98986;-71
2023/02/13 08:29:20;;;;;;;12.25;6.30;;;;;;;12.81;57.61;103442.84;5112322;27;97110;-70
2023/02/13 08:31:46;;;;;;;8.63;5.43;;;;;;;12.60;57.34;103439.34;5099394;27;97179;-70
2023/02/13 08:34:13;;;;;;;12.82;6.60;;;;;;;12.74;57.13;103442.88;5109545;27;99000;-68
2023/02/13 08:36:39;;;;;;;16.10;6.78;;;;;;;12.47;57.81;103455.31;5092236;27;99339;-68
2023/02/13 08:39:09;;;;;;;8.60;5.38;;;;;;;12.52;57.67;103456.19;5100251;27;99202;-71
2023/02/13 08:41:35;;;;;;;13.27;5.82;;;;;;;12.80;57.51;103449.94;5115876;27;97127;-71
2023/02/13 08:44:02;;;;;;;11.07;5.90;;;;;;;12.61;57.84;103449.09;5105845;27;101795;-70
2023/02/13 08:46:28;;;;;;;11.32;6.13;;;;;;;12.18;59.02;103453.53;5108648;27;98841;-69
2023/02/13 08:48:55;;;;;;;9.85;6.03;;;;;;;12.20;59.25;103450.88;5110615;27;98193;-69
2023/02/13 08:51:22;;;;;;;10.73;6.40;;;;;;;12.38;58.98;103442.94;5113404;27;96791;-69
2023/02/13 08:53:48;;;;;;;12.02;6.18;;;;;;;12.64;58.18;103440.25;5106326;27;101707;-70
2023/02/13 08:56:17;;;;;;;10.43;5.55;;;;;;;12.81;57.82;103443.75;5106774;27;98998;-71
2023/02/13 08:58:43;;;;;;;11.48;6.53;;;;;;;12.82;57.78;103449.94;5105428;27;96824;-70
2023/02/13 09:01:10;;;;;;;11.55;6.15;;;;;;;12.66;57.82;103443.78;5112969;27;97051;-70
2023/02/13 09:03:36;;;;;;;11.00;5.75;;;;;;;12.66;57.98;103443.78;5099133;27;102173;-71
2023/02/13 09:06:03;;;;;;;12.88;6.05;;;;;;;12.38;58.53;103441.16;5106441;27;99424;-70
2023/02/13 09:08:31;;;;;;;8.88;6.28;;;;;;;12.35;59.22;103451.75;5100708;27;98648;-71
2023/02/13 09:11:00;;;;;;;11.48;6.25;;;;;;;12.35;59.39;103453.53;5103421;27;96967;-71
2023/02/13 09:13:28;;;;;;;10.15;6.03;;;;;;;12.72;58.38;103443.78;5104481;27;99710;-71
2023/02/13 09:15:57;;;;;;;13.10;5.93;;;;;;;12.64;58.58;103450.88;5102422;27;99943;-71
2023/02/13 09:18:23;;;;;;;9.88;6.13;;;;;;;12.83;58.31;103447.28;5106256;27;99588;-71
2023/02/13 09:20:49;;;;;;;9.95;5.75;;;;;;;12.78;58.42;103446.41;5102940;27;96990;-73
2023/02/13 09:23:16;;;;;;;10.45;6.20;;;;;;;12.92;58.60;103457.91;5108890;27;97973;-70
2023/02/13 09:25:42;;;;;;;9.40;6.05;;;;;;;12.72;59.22;103454.41;5106416;27;97672;-70
2023/02/13 09:28:09;;;;;;;10.95;6.38;;;;;;;12.54;59.97;103457.03;5085979;27;98368;-69
2023/02/13 09:30:36;;;;;;;14.52;6.97;;;;;;;12.78;59.63;103459.69;5103811;27;97363;-70
2023/02/13 09:33:03;;;;;;;13.48;8.07;;;;;;;12.51;60.62;103460.59;5096052;27;98857;-71
2023/02/13 09:35:30;;;;;;;13.88;7.90;;;;;;;12.34;61.42;103463.25;5088406;27;98597;-70
2023/02/13 09:37:57;;;;;;;17.15;7.25;;;;;;;11.96;63.61;103465.88;5097268;27;98912;-71
2023/02/13 09:40:28;;;;;;;12.25;7.22;;;;;;;12.18;63.43;103469.44;5101118;27;98589;-71
2023/02/13 09:43:04;;;;;;;13.30;7.75;;;;;;;12.18;63.44;103473.84;5106070;27;99044;-71
2023/02/13 09:45:30;;;;;;;14.60;7.82;;;;;;;12.38;63.22;103474.75;5107677;27;99164;-71
2023/02/13 09:47:58;;;;;;;18.00;7.97;;;;;;;12.62;62.88;103479.16;5108595;27;96968;-72
2023/02/13 09:50:29;;;;;;;18.83;8.65;;;;;;;12.57;62.99;103478.28;5092900;27;97194;-72
2023/02/13 09:52:58;;;;;;;14.32;8.00;;;;;;;12.41;63.97;103468.53;5094837;27;98507;-71
2023/02/13 09:55:29;;;;;;;16.88;9.50;;;;;;;12.45;64.19;103463.25;5103304;27;100124;-70
2023/02/13 09:58:02;;;;;;;17.05;8.88;;;;;;;12.48;64.55;103465.91;5100887;27;98303;-72
2023/02/13 10:00:33;;;;;;;15.32;8.77;;;;;;;12.26;65.20;103458.84;5103560;27;96862;-72
2023/02/13 10:03:22;;;;;;;19.48;9.38;;;;;;;12.51;64.46;103459.72;5107727;27;99872;-71
2023/02/13 10:05:58;;;;;;;17.00;9.27;;;;;;;12.62;64.14;103461.47;5106411;27;97800;-70
2023/02/13 10:08:37;;;;;;;17.50;9.20;;;;;;;12.21;66.29;103463.22;5106941;27;98375;-71
2023/02/13 10:11:12;;;;;;;18.30;10.05;;;;;;;12.66;64.78;103465.91;5102600;27;96778;-72
2023/02/13 10:13:57;;;;;;;17.80;9.98;;;;;;;12.88;63.71;103458.78;5102433;27;99885;-70
2023/02/13 10:16:28;;;;;;;19.45;10.05;;;;;;;13.11;63.02;103472.88;5102456;27;102459;-70
2023/02/13 10:19:00;;;;;;;18.30;9.55;;;;;;;12.89;62.85;103465.84;5090304;27;97923;-72
2023/02/13 10:21:32;;;;;;;15.50;9.13;;;;;;;13.00;63.24;103465.81;5091496;27;98940;-71
2023/02/13 10:24:04;;;;;;;16.42;9.10;;;;;;;12.68;63.77;103460.56;5101805;27;98879;-71
2023/02/13 10:26:42;;;;;;;18.40;9.70;;;;;;;12.66;64.56;103459.72;5105885;27;99244;-70
2023/02/13 10:32:07;;;;;;;17.10;8.77;;;;;;;12.81;64.40;103459.66;5102520;27;97225;-71
2023/02/13 10:34:43;;;;;;;16.95;9.80;;;;;;;12.95;64.08;103451.69;5101930;27;99736;-71
2023/02/13 10:37:14;;;;;;;18.15;9.13;;;;;;;13.02;63.43;103458.75;5101340;27;97534;-71
2023/02/13 10:39:43;;;;;;;17.33;8.45;;;;;;;12.52;64.25;103462.38;5099272;27;97827;-71
2023/02/13 10:42:21;;;;;;;12.13;7.80;;;;;;;12.70;64.02;103450.84;5102602;27;97063;-71
2023/02/13 10:45:04;;;;;;;15.10;8.13;;;;;;;12.84;63.43;103461.44;5110011;27;100035;-73
2023/02/13 10:47:46;;;;;;;14.02;8.43;;;;;;;13.13;62.55;103455.19;5104324;27;101948;-72
2023/02/13 10:50:22;;;;;;;14.93;8.50;;;;;;;13.37;61.48;103450.69;5111294;27;97110;-72
2023/02/13 10:52:57;;;;;;;14.30;8.40;;;;;;;13.07;62.38;103452.53;5107761;27;98051;-72
2023/02/13 10:55:50;;;;;;;15.68;8.40;;;;;;;13.20;61.91;103441.88;5107377;27;98430;-71
2023/02/13 10:58:20;;;;;;;13.55;8.05;;;;;;;12.99;61.88;103449.03;5106547;27;99315;-71
2023/02/13 11:00:53;;;;;;;15.77;8.70;;;;;;;13.05;61.49;103433.09;5105847;27;98474;-71
2023/02/13 11:03:21;;;;;;;13.68;8.48;;;;;;;13.17;61.61;103432.19;5107348;27;98583;-73
2023/02/13 11:05:50;;;;;;;14.77;8.77;;;;;;;13.30;60.74;103428.59;5106803;27;97752;-73
2023/02/13 11:08:20;;;;;;;15.10;9.35;;;;;;;13.63;60.20;103424.00;5106913;27;99219;-72
2023/02/13 11:10:47;;;;;;;18.08;9.40;;;;;;;13.14;59.91;103432.19;5097310;27;98031;-73
2023/02/13 11:13:19;;;;;;;14.50;8.68;;;;;;;13.16;59.92;103435.72;5103118;27;97241;-72
2023/02/13 11:16:01;;;;;;;13.50;8.82;;;;;;;13.33;59.86;103430.31;5101898;27;97760;-71
2023/02/13 11:18:30;;;;;;;16.10;10.00;;;;;;;13.24;60.03;103428.63;5105608;27;99237;-72
2023/02/13 11:21:07;;;;;;;17.38;10.00;;;;;;;13.57;59.57;103432.88;5104105;27;96834;-71
2023/02/13 11:23:37;;;;;;;16.55;10.27;;;;;;;13.75;59.23;103427.47;5102859;27;96837;-73
2023/02/13 11:26:08;;;;;;;17.65;9.88;;;;;;;13.92;57.33;103422.91;5109070;27;98926;-71
2023/02/13 11:28:37;;;;;;;21.75;11.88;;;;;;;13.77;57.99;103420.38;5102035;27;98847;-72
2023/02/13 11:31:21;;;;;;;16.08;10.38;;;;;;;13.77;57.40;103420.38;5100906;27;96806;-72
2023/02/13 11:33:48;;;;;;;17.48;11.32;;;;;;;13.82;56.95;103426.53;5110519;27;96851;-72
2023/02/13 11:36:17;;;;;;;18.92;11.25;;;;;;;13.31;58.33;103413.53;5103892;27;98191;-71
2023/02/13 11:38:43;;;;;;;19.50;11.77;;;;;;;13.40;58.11;103414.38;5102543;27;99966;-73
2023/02/13 11:41:12;;;;;;;20.33;11.30;;;;;;;13.22;58.77;103413.56;5097658;27;98359;-70
2023/02/13 11:43:47;;;;;;;18.25;11.77;;;;;;;13.28;58.81;103419.75;5104526;27;98304;-72
2023/02/13 11:46:19;;;;;;;17.77;11.13;;;;;;;13.59;57.26;103422.25;5099976;27;99357;-70
2023/02/13 11:48:58;;;;;;;26.00;12.85;;;;;;;13.69;57.13;103408.91;5096302;27;100601;-70
2023/02/13 11:51:41;;;;;;;18.70;11.48;;;;;;;13.91;56.13;103407.84;5099733;27;99474;-70
2023/02/13 11:54:24;;;;;;;22.17;12.20;;;;;;;14.03;56.26;103401.56;5104341;27;97166;-70
2023/02/13 11:56:53;;;;;;;19.15;11.13;;;;;;;14.08;55.63;103410.38;5108478;27;98546;-70
2023/02/13 11:59:22;;;;;;;23.25;13.15;;;;;;;13.92;56.00;103400.75;5098571;27;100412;-71
2023/02/13 12:02:02;;;;;;;22.38;13.07;;;;;;;13.89;55.57;103399.00;5101426;27;99066;-74
2023/02/13 12:04:28;;;;;;;19.00;12.07;;;;;;;13.90;55.77;103406.09;5103515;27;97147;-71
2023/02/13 12:07:01;;;;;;;20.40;12.30;;;;;;;13.72;55.83;103395.56;5112034;27;100659;-71
2023/02/13 12:09:30;;;;;;;19.75;11.52;;;;;;;13.29;56.25;103389.66;5103450;27;98715;-71
2023/02/13 12:12:01;;;;;;;19.13;12.38;;;;;;;13.11;56.95;103387.94;5099178;27;98489;-70
2023/02/13 12:14:33;;;;;;;20.80;11.82;;;;;;;12.96;57.17;103387.97;5101091;27;96815;-70
2023/02/13 12:17:04;;;;;;;22.70;12.52;;;;;;;12.86;57.04;103394.22;5099406;27;99414;-73